Walker, West Virginia
Current Conditions -  °F | °C
As of 4:53 PM on Wednesday 28 Jan 2015 (Local Time) from KPKB Reporting Station
Clear Clear  
Wind Chill: 23°   Ceiling: Unl
Heat Index: 28°   Visibility: 10mi
Dew Point: 12°   Wind: 5mph
Humidity: 51%   Direction: 160°SSE
Pressure: 30.35"   Gusts: NA
Location:  39.18°N, 81.38°W
Report Text: KPKB 282153Z 16004KT 10SM CLR M02/M11 A3035 RMK AO2 SLP290 T10221111
Loading
Personal Weather Stations






























Interactive Weather Map New forecast layout! Learn more

10-Day Weather Forecast

Advertisements
Track Severe Weather on mobile